Time;durP1;ratioP1;P1;durP2;ratioP2;P2;SDS_P1;SDS_P2;PMS_P1;PMS_P2;Temp;Humidity;BMP_temperature;BMP_pressure;BME280_temperature;BME280_humidity;BME280_pressure;Samples;Min_cycle;Max_cycle;Signal;HPM_P1;HPM_P2
2022/03/02 00:01:34;;;;;;;43.43;25.87;;;8.20;99.90;;;;;;5031700;28;20228;-75
2022/03/02 00:03:59;;;;;;;40.37;25.33;;;8.30;99.90;;;;;;5032389;28;20197;-74
2022/03/02 00:06:26;;;;;;;41.97;25.27;;;8.20;99.90;;;;;;5032531;28;20187;-73
2022/03/02 00:08:52;;;;;;;41.80;24.97;;;8.10;99.90;;;;;;5032214;28;20210;-74
2022/03/02 00:11:18;;;;;;;41.17;25.23;;;8.10;99.90;;;;;;5031295;28;20660;-74
2022/03/02 00:13:44;;;;;;;44.27;25.87;;;8.10;99.90;;;;;;5030420;28;20678;-74
2022/03/02 00:16:10;;;;;;;40.87;25.87;;;8.20;99.90;;;;;;5033754;28;20201;-72
2022/03/02 00:18:36;;;;;;;44.80;27.23;;;8.20;99.90;;;;;;5030972;28;20575;-73
2022/03/02 00:21:02;;;;;;;40.13;24.83;;;8.20;99.90;;;;;;5030897;28;20206;-74
2022/03/02 00:23:28;;;;;;;42.73;26.00;;;8.10;99.90;;;;;;5047568;28;20198;-74
2022/03/02 00:25:54;;;;;;;41.93;26.07;;;8.10;99.90;;;;;;5030001;28;20230;-74
2022/03/02 00:28:20;;;;;;;46.00;25.90;;;8.20;99.90;;;;;;5010822;28;20231;-73
2022/03/02 00:30:45;;;;;;;49.60;28.43;;;8.20;99.90;;;;;;5030473;28;20213;-73
2022/03/02 00:33:12;;;;;;;48.43;27.93;;;8.10;99.90;;;;;;5032946;28;20182;-73
2022/03/02 00:35:37;;;;;;;46.60;28.07;;;8.20;99.90;;;;;;5050439;28;20182;-72
2022/03/02 00:38:04;;;;;;;48.70;28.03;;;8.20;99.90;;;;;;5033956;28;20290;-71
2022/03/02 00:40:30;;;;;;;48.03;26.43;;;8.10;99.90;;;;;;5011679;28;20210;-70
2022/03/02 00:42:56;;;;;;;40.33;27.03;;;8.00;99.90;;;;;;5033841;28;20699;-70
2022/03/02 00:45:22;;;;;;;45.07;26.37;;;8.00;99.90;;;;;;5033884;28;20278;-70
2022/03/02 00:47:48;;;;;;;48.60;26.23;;;7.90;99.90;;;;;;5035306;28;20206;-70
2022/03/02 00:50:15;;;;;;;45.53;26.00;;;7.90;99.90;;;;;;5035246;28;20194;-70
2022/03/02 00:52:41;;;;;;;45.53;26.27;;;7.90;99.90;;;;;;5034083;28;20183;-70
2022/03/02 00:55:07;;;;;;;47.70;26.83;;;7.90;99.90;;;;;;5034369;28;20244;-69
2022/03/02 00:57:32;;;;;;;50.43;28.40;;;7.90;99.90;;;;;;5033110;28;20183;-69
2022/03/02 00:59:58;;;;;;;51.37;30.37;;;7.90;99.90;;;;;;5035176;28;20183;-70
2022/03/02 01:02:24;;;;;;;46.77;27.57;;;7.90;99.90;;;;;;5034074;28;20201;-75
2022/03/02 01:04:50;;;;;;;47.47;25.30;;;7.90;99.90;;;;;;5035037;28;20191;-71
2022/03/02 01:07:16;;;;;;;44.03;26.33;;;8.00;99.90;;;;;;5033933;28;20194;-70
2022/03/02 01:09:42;;;;;;;45.70;28.43;;;7.90;99.90;;;;;;5034344;28;20186;-71
2022/03/02 01:12:08;;;;;;;47.03;27.00;;;7.80;99.90;;;;;;5033106;28;20659;-70
2022/03/02 01:14:33;;;;;;;41.83;26.83;;;7.80;99.90;;;;;;5050002;28;20691;-70
2022/03/02 01:16:59;;;;;;;47.27;26.93;;;7.60;99.90;;;;;;5017121;28;20636;-70
2022/03/02 01:19:25;;;;;;;38.90;24.80;;;7.50;99.90;;;;;;5029991;28;20210;-70
2022/03/02 01:21:51;;;;;;;47.07;25.30;;;7.50;99.90;;;;;;5014757;28;20294;-71
2022/03/02 01:24:16;;;;;;;48.00;27.77;;;7.50;99.90;;;;;;5038472;28;20317;-72
2022/03/02 01:26:44;;;;;;;47.83;27.03;;;7.60;99.90;;;;;;5033656;28;20522;-70
2022/03/02 01:29:10;;;;;;;41.43;26.33;;;7.60;99.90;;;;;;5033995;28;20601;-74
2022/03/02 01:31:36;;;;;;;44.40;26.70;;;7.50;99.90;;;;;;5015998;28;20187;-70
2022/03/02 01:34:02;;;;;;;49.20;28.27;;;7.50;99.90;;;;;;5033590;28;20261;-70
2022/03/02 01:36:28;;;;;;;44.67;26.13;;;7.60;99.90;;;;;;5034628;28;20225;-70
2022/03/02 01:38:53;;;;;;;44.50;26.63;;;7.40;99.90;;;;;;5033243;28;20182;-70
2022/03/02 01:41:21;;;;;;;44.47;26.43;;;7.40;99.90;;;;;;5033013;28;20215;-70
2022/03/02 01:43:48;;;;;;;49.50;26.93;;;7.30;99.90;;;;;;5049590;28;20248;-70
2022/03/02 01:46:16;;;;;;;49.57;27.03;;;7.40;99.90;;;;;;5016096;28;20683;-70
2022/03/02 01:48:42;;;;;;;43.07;26.57;;;7.50;99.90;;;;;;5015208;28;20172;-70
2022/03/02 01:51:08;;;;;;;44.60;26.23;;;7.40;99.90;;;;;;5028789;28;20190;-69
2022/03/02 01:53:35;;;;;;;43.37;25.83;;;7.30;99.90;;;;;;5016667;28;20191;-70
2022/03/02 01:56:01;;;;;;;45.00;27.07;;;7.30;99.90;;;;;;5033345;28;20194;-70
2022/03/02 01:58:28;;;;;;;45.43;24.93;;;7.40;99.90;;;;;;5049553;28;20187;-70
2022/03/02 02:00:54;;;;;;;46.27;27.13;;;7.40;99.90;;;;;;5032039;28;20218;-70
2022/03/02 02:03:20;;;;;;;40.73;25.07;;;7.40;99.90;;;;;;5032583;28;20256;-70
2022/03/02 02:05:46;;;;;;;42.70;26.10;;;7.30;99.90;;;;;;5017364;28;20225;-70
2022/03/02 02:08:11;;;;;;;43.40;25.63;;;7.20;99.90;;;;;;5029392;28;20187;-70
2022/03/02 02:10:38;;;;;;;46.73;24.73;;;7.20;99.90;;;;;;5032791;28;20201;-71
2022/03/02 02:13:03;;;;;;;46.90;25.50;;;7.10;99.90;;;;;;5049142;28;20239;-70
2022/03/02 02:15:30;;;;;;;48.53;26.40;;;7.00;99.90;;;;;;5032594;28;20648;-70
2022/03/02 02:17:56;;;;;;;42.30;23.60;;;7.10;99.90;;;;;;5032517;28;20179;-71
2022/03/02 02:20:23;;;;;;;41.00;25.00;;;7.10;99.90;;;;;;5032606;28;20698;-71
2022/03/02 02:22:49;;;;;;;43.87;24.93;;;7.00;99.90;;;;;;5032342;28;20183;-70
2022/03/02 02:25:16;;;;;;;37.67;23.33;;;7.10;99.90;;;;;;5033642;28;20175;-71
2022/03/02 02:27:44;;;;;;;44.53;25.13;;;7.10;99.90;;;;;;5032651;28;20179;-71
2022/03/02 02:30:11;;;;;;;44.10;23.83;;;7.00;99.90;;;;;;5032311;28;20663;-70
2022/03/02 02:32:38;;;;;;;41.00;24.43;;;6.90;99.90;;;;;;5032308;28;20644;-73
2022/03/02 02:35:06;;;;;;;40.50;24.23;;;6.90;99.90;;;;;;5032453;28;20368;-71
2022/03/02 02:37:33;;;;;;;43.97;25.37;;;6.90;99.90;;;;;;5032963;28;20182;-71
2022/03/02 02:40:02;;;;;;;38.03;23.23;;;6.80;99.90;;;;;;5048836;28;20644;-70
2022/03/02 02:42:28;;;;;;;41.03;23.80;;;6.80;99.90;;;;;;5024601;28;20203;-70
2022/03/02 02:44:55;;;;;;;39.73;23.40;;;6.80;99.90;;;;;;5014945;28;20189;-72
2022/03/02 02:47:21;;;;;;;40.57;24.47;;;6.80;99.90;;;;;;5047694;28;20278;-70
2022/03/02 02:49:47;;;;;;;39.30;23.80;;;6.90;99.90;;;;;;5032184;28;20197;-70
2022/03/02 02:52:13;;;;;;;41.40;25.63;;;6.90;99.90;;;;;;5031847;28;20186;-70
2022/03/02 02:54:39;;;;;;;38.63;23.93;;;6.90;99.90;;;;;;5031634;28;20187;-70
2022/03/02 02:57:05;;;;;;;39.07;23.50;;;7.00;99.90;;;;;;5048457;28;20186;-77
2022/03/02 02:59:31;;;;;;;40.43;24.03;;;6.90;99.90;;;;;;5031804;28;20191;-71
2022/03/02 03:01:57;;;;;;;43.33;24.77;;;7.00;99.90;;;;;;5031969;28;20202;-71
2022/03/02 03:04:22;;;;;;;38.10;24.57;;;7.00;99.90;;;;;;5028302;28;20194;-73
2022/03/02 03:06:48;;;;;;;36.97;23.37;;;7.00;99.90;;;;;;5033156;28;20534;-70
2022/03/02 03:09:16;;;;;;;36.67;24.50;;;6.90;99.90;;;;;;5032597;28;20183;-70
2022/03/02 03:11:42;;;;;;;41.90;23.40;;;6.80;99.90;;;;;;5033189;28;20269;-70
2022/03/02 03:14:13;;;;;;;39.00;24.57;;;6.90;99.90;;;;;;5032953;28;20229;-71
2022/03/02 03:16:40;;;;;;;39.73;22.07;;;6.80;99.90;;;;;;5032343;28;20182;-70
2022/03/02 03:19:06;;;;;;;39.13;23.13;;;6.80;99.90;;;;;;5032942;28;20183;-70
2022/03/02 03:21:32;;;;;;;37.27;23.03;;;6.70;99.90;;;;;;5031484;28;20293;-70
2022/03/02 03:23:58;;;;;;;42.77;24.30;;;6.60;99.90;;;;;;5031494;28;20679;-70
2022/03/02 03:26:23;;;;;;;39.03;22.83;;;6.60;99.90;;;;;;5030571;28;20179;-70
2022/03/02 03:28:50;;;;;;;38.47;22.90;;;6.50;99.90;;;;;;5031267;28;20183;-70
2022/03/02 03:31:15;;;;;;;38.00;23.80;;;6.50;99.90;;;;;;5032470;28;20186;-70
2022/03/02 03:33:41;;;;;;;48.30;24.73;;;6.70;99.90;;;;;;5031742;28;20572;-70
2022/03/02 03:36:07;;;;;;;35.97;21.57;;;6.70;99.90;;;;;;5030879;28;20182;-71
2022/03/02 03:38:33;;;;;;;38.70;23.57;;;6.80;99.90;;;;;;5032630;28;20178;-70
2022/03/02 03:40:59;;;;;;;42.37;24.17;;;6.80;99.90;;;;;;5032714;28;20202;-71
2022/03/02 03:43:25;;;;;;;39.83;23.63;;;6.70;99.90;;;;;;5032270;28;20194;-70
2022/03/02 03:45:51;;;;;;;39.57;22.13;;;6.70;99.90;;;;;;5030861;28;20592;-70
2022/03/02 03:48:17;;;;;;;38.57;22.63;;;6.70;99.90;;;;;;5030973;28;20195;-70
2022/03/02 03:50:44;;;;;;;42.03;24.57;;;6.60;99.90;;;;;;5032427;28;20225;-70
2022/03/02 03:53:11;;;;;;;40.50;22.87;;;6.70;99.90;;;;;;5032335;28;20205;-70
2022/03/02 03:55:38;;;;;;;40.60;22.93;;;6.70;99.90;;;;;;5032132;28;20185;-70
2022/03/02 03:58:07;;;;;;;35.80;23.10;;;6.60;99.90;;;;;;5031145;28;20190;-70
2022/03/02 04:00:33;;;;;;;34.70;21.03;;;6.70;99.90;;;;;;5032038;28;20215;-70
2022/03/02 04:02:59;;;;;;;38.80;21.87;;;6.70;99.90;;;;;;5047621;28;20555;-70
2022/03/02 04:05:25;;;;;;;36.27;20.37;;;6.60;99.90;;;;;;5032408;28;20187;-70
2022/03/02 04:07:50;;;;;;;37.53;24.40;;;6.50;99.90;;;;;;5047597;28;20300;-70
2022/03/02 04:10:17;;;;;;;35.73;21.00;;;6.50;99.90;;;;;;5030786;28;20191;-70
2022/03/02 04:12:44;;;;;;;37.57;22.13;;;6.50;99.90;;;;;;5030955;28;20655;-69
2022/03/02 04:15:10;;;;;;;37.63;21.93;;;6.50;99.90;;;;;;5031837;28;20276;-70
2022/03/02 04:17:36;;;;;;;34.53;20.90;;;6.40;99.90;;;;;;5032194;28;20313;-70
2022/03/02 04:20:04;;;;;;;35.37;21.33;;;6.40;99.90;;;;;;5047656;28;20278;-70
2022/03/02 04:22:30;;;;;;;45.60;23.57;;;6.40;99.90;;;;;;5031106;28;20230;-70
2022/03/02 04:24:55;;;;;;;39.60;23.13;;;6.30;99.90;;;;;;5031098;28;20645;-70
2022/03/02 04:27:21;;;;;;;35.37;21.70;;;6.20;99.90;;;;;;5047521;28;20667;-70
2022/03/02 04:29:46;;;;;;;36.90;22.40;;;6.20;99.90;;;;;;5031808;28;20195;-69
2022/03/02 04:32:12;;;;;;;36.83;23.53;;;6.20;99.90;;;;;;5031262;28;20186;-70
2022/03/02 04:34:38;;;;;;;40.33;21.93;;;6.20;99.90;;;;;;5030405;28;20594;-70
2022/03/02 04:37:04;;;;;;;39.77;22.50;;;6.20;99.90;;;;;;5014434;28;20183;-71
2022/03/02 04:39:30;;;;;;;48.13;24.00;;;6.10;99.90;;;;;;5031576;28;20241;-70
2022/03/02 04:41:56;;;;;;;38.73;21.90;;;6.10;99.90;;;;;;5030647;28;20214;-72
2022/03/02 04:44:21;;;;;;;40.70;21.87;;;6.10;99.90;;;;;;5030290;28;20205;-70
2022/03/02 04:46:51;;;;;;;35.23;22.03;;;6.10;99.90;;;;;;5033029;28;20214;-70
2022/03/02 04:49:18;;;;;;;46.53;24.47;;;6.10;99.90;;;;;;5034656;28;20175;-69
2022/03/02 04:51:48;;;;;;;35.93;22.40;;;6.20;99.90;;;;;;5035226;28;20191;-70
2022/03/02 04:56:59;;;;;;;37.07;22.90;;;6.20;99.90;;;;;;5035500;28;20221;-70
2022/03/02 04:59:24;;;;;;;38.43;20.77;;;6.20;99.90;;;;;;5034598;28;20596;-70
2022/03/02 05:01:50;;;;;;;35.50;21.97;;;6.10;99.90;;;;;;5033618;28;20293;-70
2022/03/02 05:04:16;;;;;;;37.43;21.13;;;6.10;99.90;;;;;;5017406;28;20302;-69
2022/03/02 05:06:41;;;;;;;42.87;23.17;;;6.10;99.90;;;;;;5035135;28;20186;-70
2022/03/02 05:09:07;;;;;;;37.37;21.23;;;6.10;99.90;;;;;;5033959;28;20187;-69
2022/03/02 05:11:33;;;;;;;34.47;21.47;;;6.10;99.90;;;;;;5033900;28;20194;-70
2022/03/02 05:13:58;;;;;;;35.27;20.97;;;6.10;99.90;;;;;;5034804;28;20202;-70
2022/03/02 05:16:24;;;;;;;38.17;21.60;;;6.00;99.90;;;;;;5016678;28;20289;-70
2022/03/02 05:18:50;;;;;;;32.43;20.10;;;5.90;99.90;;;;;;5033889;28;20193;-70
2022/03/02 05:21:15;;;;;;;40.77;21.40;;;5.90;99.90;;;;;;5034698;28;20214;-70
2022/03/02 05:23:41;;;;;;;38.43;22.07;;;5.80;99.90;;;;;;5033595;28;20691;-70
2022/03/02 05:26:07;;;;;;;40.77;23.00;;;5.80;99.90;;;;;;5033424;28;20713;-70
2022/03/02 05:28:33;;;;;;;33.67;21.13;;;5.80;99.90;;;;;;5033298;28;20550;-70
2022/03/02 05:30:59;;;;;;;37.13;21.03;;;5.80;99.90;;;;;;5034677;28;20561;-70
2022/03/02 05:33:25;;;;;;;38.03;23.60;;;5.70;99.90;;;;;;5033470;28;20190;-70
2022/03/02 05:35:50;;;;;;;34.37;20.03;;;5.80;99.90;;;;;;5017006;28;20562;-70
2022/03/02 05:38:18;;;;;;;34.17;20.57;;;5.70;99.90;;;;;;5033517;28;20197;-73
2022/03/02 05:40:44;;;;;;;34.67;21.03;;;5.70;99.90;;;;;;5032040;28;20253;-69
2022/03/02 05:43:10;;;;;;;35.50;21.30;;;5.70;99.90;;;;;;5033493;28;20215;-71
2022/03/02 05:45:35;;;;;;;35.30;22.40;;;5.60;99.90;;;;;;5032159;28;20190;-71
2022/03/02 05:48:01;;;;;;;41.00;23.77;;;5.60;99.90;;;;;;5034230;28;20632;-70
2022/03/02 05:50:27;;;;;;;33.43;19.80;;;5.60;99.90;;;;;;5034325;28;20186;-69
2022/03/02 05:52:52;;;;;;;39.00;21.30;;;5.60;99.90;;;;;;5034484;28;20529;-69
2022/03/02 05:55:18;;;;;;;35.90;21.13;;;5.70;99.90;;;;;;5034582;28;20206;-68
2022/03/02 05:57:44;;;;;;;39.97;22.60;;;5.60;99.90;;;;;;5033516;28;20209;-70
2022/03/02 06:00:10;;;;;;;37.23;21.37;;;5.50;99.90;;;;;;5034286;28;20183;-70
2022/03/02 06:02:36;;;;;;;39.93;21.07;;;5.50;99.90;;;;;;5033934;28;20186;-70
2022/03/02 06:05:02;;;;;;;34.93;21.60;;;5.60;99.90;;;;;;5032956;28;20189;-70
2022/03/02 06:07:27;;;;;;;30.47;19.93;;;5.50;99.90;;;;;;5049370;28;20183;-70
2022/03/02 06:09:53;;;;;;;36.07;22.23;;;5.50;99.90;;;;;;5033831;28;20186;-70
2022/03/02 06:12:20;;;;;;;40.07;21.43;;;5.70;99.90;;;;;;5032803;28;20270;-70
2022/03/02 06:14:46;;;;;;;35.80;20.47;;;5.80;99.90;;;;;;5031914;28;20596;-70
2022/03/02 06:17:12;;;;;;;36.67;20.77;;;5.70;99.90;;;;;;5032668;28;20193;-70
2022/03/02 06:19:38;;;;;;;42.83;21.30;;;5.70;99.90;;;;;;5032268;28;20249;-70
2022/03/02 06:22:04;;;;;;;34.57;20.50;;;5.60;99.90;;;;;;5032623;28;20260;-70
2022/03/02 06:24:31;;;;;;;39.83;22.03;;;5.60;99.90;;;;;;5032451;28;20547;-70
2022/03/02 06:26:58;;;;;;;29.10;19.43;;;5.70;99.90;;;;;;5048952;28;20547;-71
2022/03/02 06:29:24;;;;;;;36.33;19.47;;;5.60;99.90;;;;;;5033066;28;20190;-70
2022/03/02 06:31:50;;;;;;;36.73;20.17;;;5.60;99.90;;;;;;5033243;28;20723;-70
2022/03/02 06:34:17;;;;;;;35.87;20.03;;;5.40;99.90;;;;;;5032857;28;20277;-71
2022/03/02 06:36:43;;;;;;;38.47;20.47;;;5.40;99.90;;;;;;5033033;28;20333;-71
2022/03/02 06:39:09;;;;;;;34.97;20.40;;;5.40;99.90;;;;;;5032186;28;20310;-71
2022/03/02 06:41:48;;;;;;;38.27;18.87;;;5.30;99.90;;;;;;5032127;28;20305;-72
2022/03/02 06:44:26;;;;;;;27.53;18.27;;;5.20;99.90;;;;;;5034413;28;20199;-71
2022/03/02 06:47:02;;;;;;;32.70;20.07;;;5.20;99.90;;;;;;5050295;28;20171;-71
2022/03/02 06:49:44;;;;;;;41.57;22.07;;;5.30;99.90;;;;;;5034242;28;20175;-70
2022/03/02 06:52:12;;;;;;;35.97;18.13;;;5.40;99.90;;;;;;5048873;28;20198;-72
2022/03/02 06:54:42;;;;;;;36.23;19.37;;;5.20;99.90;;;;;;5032561;28;20296;-71
2022/03/02 06:57:12;;;;;;;39.23;21.17;;;5.20;99.90;;;;;;5048477;28;20175;-71
2022/03/02 06:59:40;;;;;;;36.13;18.33;;;5.30;99.90;;;;;;5033108;28;20175;-71
2022/03/02 07:02:07;;;;;;;30.67;17.57;;;5.30;99.90;;;;;;5032831;28;20200;-71
2022/03/02 07:04:42;;;;;;;32.90;17.90;;;5.40;99.90;;;;;;5031858;28;20218;-71
2022/03/02 07:07:09;;;;;;;35.50;18.53;;;5.50;99.90;;;;;;5032451;28;20260;-71
2022/03/02 07:09:35;;;;;;;32.63;17.67;;;5.60;99.90;;;;;;5032035;28;20634;-71
2022/03/02 07:12:03;;;;;;;37.23;19.63;;;5.60;99.90;;;;;;5031528;28;20221;-71
2022/03/02 07:14:30;;;;;;;35.27;20.10;;;5.60;99.90;;;;;;5031301;28;20604;-74
2022/03/02 07:17:00;;;;;;;32.83;20.13;;;5.60;99.90;;;;;;5032929;28;20185;-72
2022/03/02 07:19:27;;;;;;;28.87;17.93;;;5.50;99.90;;;;;;5032823;28;20183;-71
2022/03/02 07:21:55;;;;;;;37.87;20.57;;;5.60;99.90;;;;;;5031521;28;20207;-70
2022/03/02 07:24:22;;;;;;;40.87;18.80;;;5.70;99.90;;;;;;5032727;28;20182;-70
2022/03/02 07:26:56;;;;;;;36.47;19.47;;;5.70;99.90;;;;;;5032810;28;20183;-71
2022/03/02 07:29:26;;;;;;;35.70;19.60;;;5.80;99.90;;;;;;5032284;28;20292;-71
2022/03/02 07:31:56;;;;;;;34.90;20.13;;;5.70;99.90;;;;;;5032364;28;20218;-71
2022/03/02 07:34:25;;;;;;;33.77;19.80;;;5.70;99.90;;;;;;5030695;28;20190;-72
2022/03/02 07:36:51;;;;;;;42.67;19.73;;;5.70;99.90;;;;;;5032350;28;20567;-71
2022/03/02 07:39:16;;;;;;;35.03;20.10;;;5.70;99.90;;;;;;5032107;28;20269;-71
2022/03/02 07:41:42;;;;;;;41.63;20.80;;;5.70;99.90;;;;;;5031402;28;20726;-71
2022/03/02 07:44:09;;;;;;;35.17;19.97;;;5.90;99.90;;;;;;5031813;28;20269;-71
2022/03/02 07:46:35;;;;;;;32.80;20.47;;;6.30;99.90;;;;;;5014529;28;20182;-71
2022/03/02 07:49:02;;;;;;;34.23;20.10;;;6.70;99.90;;;;;;5047934;28;20554;-72
2022/03/02 07:51:28;;;;;;;40.77;23.73;;;7.10;99.90;;;;;;5030747;28;20305;-71
2022/03/02 07:53:59;;;;;;;40.10;20.17;;;7.40;99.90;;;;;;5031284;28;20183;-71
2022/03/02 07:56:28;;;;;;;27.43;17.33;;;7.80;99.90;;;;;;5032421;28;20178;-71
2022/03/02 07:59:03;;;;;;;30.73;17.70;;;8.00;99.90;;;;;;5031220;28;20194;-71
2022/03/02 08:01:34;;;;;;;30.33;18.77;;;8.20;99.90;;;;;;5031978;28;20198;-72
2022/03/02 08:04:06;;;;;;;36.70;20.30;;;8.30;99.90;;;;;;5018258;28;20186;-71
2022/03/02 08:06:35;;;;;;;34.57;18.67;;;8.90;99.90;;;;;;5047731;28;20193;-72
2022/03/02 08:09:06;;;;;;;28.43;18.17;;;9.00;99.90;;;;;;5013295;28;20190;-72
2022/03/02 08:11:34;;;;;;;36.30;19.03;;;8.60;99.90;;;;;;5019512;28;20558;-71
2022/03/02 08:14:00;;;;;;;32.90;18.80;;;8.50;99.90;;;;;;5047005;28;20191;-71
2022/03/02 08:16:28;;;;;;;30.87;18.57;;;8.20;99.90;;;;;;5030968;28;20233;-71
2022/03/02 08:18:54;;;;;;;33.80;18.73;;;7.90;99.90;;;;;;5047523;28;20183;-72
2022/03/02 08:21:21;;;;;;;33.23;20.33;;;8.00;99.90;;;;;;5032586;28;20213;-71
2022/03/02 08:23:51;;;;;;;30.67;18.23;;;7.70;99.90;;;;;;5034795;28;20551;-71
2022/03/02 08:26:20;;;;;;;40.70;20.53;;;7.40;99.90;;;;;;5035812;28;20186;-73
2022/03/02 08:28:46;;;;;;;33.90;19.33;;;7.60;99.90;;;;;;5050849;28;20225;-71
2022/03/02 08:31:13;;;;;;;39.50;20.93;;;7.70;99.90;;;;;;5034601;28;20193;-72
2022/03/02 08:33:41;;;;;;;37.37;19.90;;;7.60;99.90;;;;;;5035066;28;20305;-71
2022/03/02 08:36:10;;;;;;;33.63;19.80;;;7.50;99.90;;;;;;5050570;28;20182;-71
2022/03/02 08:38:40;;;;;;;39.00;21.60;;;7.80;99.90;;;;;;5018090;28;20190;-72
2022/03/02 08:41:07;;;;;;;36.13;22.20;;;7.90;99.90;;;;;;5035656;28;20203;-71
2022/03/02 08:43:36;;;;;;;36.13;20.53;;;7.80;99.90;;;;;;5034305;28;20197;-71
2022/03/02 08:46:03;;;;;;;31.37;20.23;;;7.80;99.90;;;;;;5035669;28;20663;-71
2022/03/02 08:48:29;;;;;;;38.20;19.20;;;8.10;99.90;;;;;;5035136;28;20210;-71
2022/03/02 08:50:58;;;;;;;35.00;20.37;;;8.00;99.90;;;;;;5035600;28;20607;-71
2022/03/02 08:53:25;;;;;;;36.57;19.70;;;7.60;99.90;;;;;;5033962;28;20214;-72
2022/03/02 08:55:51;;;;;;;35.80;17.43;;;7.30;99.90;;;;;;5034021;28;20187;-71
2022/03/02 08:58:17;;;;;;;29.17;18.07;;;7.10;99.90;;;;;;5033306;28;20596;-71
2022/03/02 09:00:44;;;;;;;30.50;19.43;;;7.50;99.90;;;;;;5036038;28;20264;-70
2022/03/02 09:03:14;;;;;;;30.40;19.47;;;7.40;99.90;;;;;;5034486;28;20239;-71
2022/03/02 09:05:41;;;;;;;34.93;18.97;;;7.20;99.90;;;;;;5035121;28;20514;-71
2022/03/02 09:08:08;;;;;;;30.20;18.60;;;7.10;99.90;;;;;;5035565;28;20183;-71
2022/03/02 09:10:35;;;;;;;33.23;19.47;;;7.20;99.90;;;;;;5034576;28;20250;-71
2022/03/02 09:13:02;;;;;;;30.90;18.87;;;7.20;99.90;;;;;;5034943;28;20187;-69
2022/03/02 09:15:28;;;;;;;30.40;17.93;;;7.60;99.90;;;;;;5033836;28;20183;-72
2022/03/02 09:17:54;;;;;;;30.23;18.73;;;7.90;99.90;;;;;;5035030;28;20187;-72
2022/03/02 09:20:20;;;;;;;30.60;18.90;;;8.10;99.90;;;;;;5034368;28;20187;-71
2022/03/02 09:22:46;;;;;;;29.73;19.53;;;8.40;99.90;;;;;;5035013;28;20190;-71
2022/03/02 09:25:12;;;;;;;32.77;19.13;;;8.10;99.90;;;;;;5049266;28;20195;-71
2022/03/02 09:27:37;;;;;;;37.10;19.83;;;7.80;99.90;;;;;;5033503;28;20313;-72
2022/03/02 09:30:09;;;;;;;35.83;19.93;;;7.90;99.90;;;;;;5033703;28;20191;-72
2022/03/02 09:32:39;;;;;;;36.30;19.90;;;8.10;99.90;;;;;;5029729;28;20187;-72
2022/03/02 09:35:05;;;;;;;38.00;19.87;;;8.30;99.90;;;;;;5030013;28;20236;-72
2022/03/02 09:37:37;;;;;;;32.63;20.77;;;8.20;99.90;;;;;;5034684;28;20222;-71
2022/03/02 09:40:04;;;;;;;34.63;20.27;;;8.30;99.90;;;;;;5034689;28;20599;-70
2022/03/02 09:42:33;;;;;;;32.77;18.80;;;8.10;99.90;;;;;;5049267;28;20215;-70
2022/03/02 09:45:05;;;;;;;30.17;19.40;;;8.00;99.90;;;;;;5034210;28;20190;-71
2022/03/02 09:47:49;;;;;;;30.03;18.50;;;8.00;99.90;;;;;;5034580;28;20551;-71
2022/03/02 09:50:17;;;;;;;35.00;19.03;;;8.10;99.90;;;;;;5049245;28;20192;-71
2022/03/02 09:52:45;;;;;;;32.97;18.83;;;8.30;99.90;;;;;;5033277;28;20236;-70
2022/03/02 09:55:14;;;;;;;30.27;18.07;;;8.70;99.90;;;;;;5033439;28;20182;-70
2022/03/02 09:57:45;;;;;;;27.30;18.30;;;8.80;99.90;;;;;;5034143;28;20229;-71
2022/03/02 10:00:14;;;;;;;29.17;18.20;;;8.70;99.90;;;;;;5033210;28;20644;-70
2022/03/02 10:02:50;;;;;;;32.23;19.10;;;8.50;99.90;;;;;;5033783;28;20206;-70
2022/03/02 10:05:21;;;;;;;34.83;17.83;;;8.40;99.90;;;;;;5033953;28;20190;-71
2022/03/02 10:08:02;;;;;;;31.87;18.20;;;8.30;99.90;;;;;;5033651;28;20179;-71
2022/03/02 10:10:31;;;;;;;35.90;20.40;;;8.20;99.90;;;;;;5049432;28;20632;-71
2022/03/02 10:12:59;;;;;;;39.67;19.40;;;8.20;99.90;;;;;;5033875;28;20187;-71
2022/03/02 10:15:26;;;;;;;34.23;19.07;;;8.40;99.90;;;;;;5048333;28;20195;-72
2022/03/02 10:17:53;;;;;;;30.23;17.90;;;8.80;99.90;;;;;;5032636;28;20179;-71
2022/03/02 10:20:23;;;;;;;33.57;17.87;;;9.10;99.90;;;;;;5032311;28;20197;-72
2022/03/02 10:23:30;;;;;;;29.70;17.57;;;9.20;99.90;;;;;;5014814;28;20176;-72
2022/03/02 10:26:07;;;;;;;31.57;18.63;;;9.40;99.90;;;;;;5025680;28;20198;-72
2022/03/02 10:28:46;;;;;;;31.60;18.23;;;9.50;99.90;;;;;;5048934;28;20182;-72
2022/03/02 10:31:32;;;;;;;30.23;17.10;;;9.40;99.90;;;;;;5033079;28;20189;-72
2022/03/02 10:34:27;;;;;;;31.17;18.27;;;9.70;99.90;;;;;;5033649;28;20236;-72
2022/03/02 10:37:31;;;;;;;32.27;16.83;;;9.90;99.90;;;;;;5032364;28;20203;-72
2022/03/02 10:40:16;;;;;;;28.10;16.30;;;9.40;99.90;;;;;;5020528;28;20194;-72
2022/03/02 10:42:44;;;;;;;33.57;17.47;;;9.50;99.90;;;;;;5031771;28;20293;-72
2022/03/02 10:45:19;;;;;;;30.00;16.57;;;9.40;99.90;;;;;;5027373;28;20188;-72
2022/03/02 10:47:55;;;;;;;28.10;15.87;;;9.20;99.90;;;;;;5028197;28;20187;-72
2022/03/02 10:50:22;;;;;;;31.20;16.73;;;9.30;99.90;;;;;;5033207;28;20186;-71
2022/03/02 10:52:49;;;;;;;31.40;17.77;;;9.40;99.90;;;;;;5031953;28;20187;-71
2022/03/02 10:55:15;;;;;;;25.97;16.67;;;9.40;99.90;;;;;;5031624;28;20194;-72
2022/03/02 10:57:45;;;;;;;32.57;18.70;;;9.40;99.90;;;;;;5031445;28;20193;-72
2022/03/02 11:00:14;;;;;;;24.63;15.73;;;9.50;99.90;;;;;;5033176;28;20190;-72
2022/03/02 11:02:42;;;;;;;32.37;16.97;;;9.70;99.90;;;;;;5030891;28;20234;-72
2022/03/02 11:05:10;;;;;;;30.93;17.13;;;9.60;99.90;;;;;;5048379;28;20281;-72
2022/03/02 11:07:36;;;;;;;34.57;17.97;;;9.50;99.90;;;;;;5031660;28;20190;-72
2022/03/02 11:10:04;;;;;;;32.23;17.23;;;9.40;99.90;;;;;;5032361;28;20217;-72
2022/03/02 11:12:30;;;;;;;25.67;15.57;;;9.70;99.90;;;;;;5048198;28;20194;-72
2022/03/02 11:15:02;;;;;;;26.10;16.37;;;9.70;99.90;;;;;;5033019;28;20286;-72
2022/03/02 11:17:28;;;;;;;28.47;16.60;;;9.80;99.90;;;;;;5033113;28;20544;-72
2022/03/02 11:19:57;;;;;;;27.27;17.00;;;9.60;99.90;;;;;;5048100;28;20539;-72
2022/03/02 11:22:25;;;;;;;25.10;16.17;;;9.70;99.90;;;;;;5032157;28;20213;-72
2022/03/02 11:24:57;;;;;;;27.60;16.27;;;9.70;99.90;;;;;;5048583;28;20321;-72
2022/03/02 11:27:45;;;;;;;21.83;15.00;;;9.70;99.90;;;;;;5030983;28;20194;-71
2022/03/02 11:30:15;;;;;;;25.07;15.27;;;9.50;99.90;;;;;;5016014;28;20198;-71
2022/03/02 11:32:43;;;;;;;26.80;16.27;;;9.40;99.90;;;;;;5032615;28;20182;-72
2022/03/02 11:35:13;;;;;;;28.47;16.10;;;9.50;99.90;;;;;;5032219;28;20186;-71
2022/03/02 11:37:40;;;;;;;26.83;15.73;;;9.90;99.90;;;;;;5047966;28;20325;-72
2022/03/02 11:40:09;;;;;;;20.60;14.47;;;10.10;99.90;;;;;;5032499;28;20183;-72
2022/03/02 11:42:38;;;;;;;26.83;15.83;;;10.00;99.90;;;;;;5031140;28;20211;-72
2022/03/02 11:45:05;;;;;;;28.30;16.73;;;10.00;99.90;;;;;;5031348;28;20257;-72
2022/03/02 11:47:55;;;;;;;28.33;15.20;;;10.00;99.90;;;;;;5032715;28;20182;-72
2022/03/02 11:50:21;;;;;;;27.53;15.00;;;10.10;99.90;;;;;;5031048;28;20194;-72
2022/03/02 11:52:46;;;;;;;25.50;14.23;;;10.00;99.90;;;;;;5031065;28;20195;-72
2022/03/02 11:55:17;;;;;;;21.37;12.60;;;10.30;99.90;;;;;;5032555;28;20182;-71
2022/03/02 11:57:47;;;;;;;21.80;13.33;;;10.40;99.90;;;;;;5036542;28;20189;-73
2022/03/02 12:00:15;;;;;;;25.43;13.67;;;10.30;99.90;;;;;;5025606;28;20191;-72
2022/03/02 12:02:47;;;;;;;25.70;12.30;;;10.50;99.90;;;;;;5051673;28;20213;-72
2022/03/02 12:05:15;;;;;;;19.10;11.83;;;10.30;99.90;;;;;;5050750;28;20217;-71
2022/03/02 12:07:45;;;;;;;22.17;13.73;;;10.40;99.90;;;;;;5036380;28;20178;-71
2022/03/02 12:10:20;;;;;;;25.50;12.70;;;10.40;99.90;;;;;;5036073;28;20187;-71
2022/03/02 12:12:46;;;;;;;18.43;12.37;;;10.50;99.90;;;;;;5051145;28;20387;-71
2022/03/02 12:15:12;;;;;;;23.90;13.90;;;10.50;99.90;;;;;;5035778;28;20583;-71
2022/03/02 12:17:38;;;;;;;20.10;12.97;;;10.40;99.90;;;;;;5034380;28;20262;-72
2022/03/02 12:20:11;;;;;;;24.17;13.40;;;10.50;99.90;;;;;;5018548;28;20225;-72
2022/03/02 12:22:43;;;;;;;22.20;12.20;;;10.80;99.90;;;;;;5036040;28;20202;-72
2022/03/02 12:25:11;;;;;;;20.63;13.60;;;11.10;99.90;;;;;;5035503;28;20182;-71
2022/03/02 12:27:38;;;;;;;19.30;12.70;;;11.30;99.90;;;;;;5031677;28;20180;-73
2022/03/02 12:30:09;;;;;;;24.27;13.37;;;11.50;99.90;;;;;;5021636;28;20182;-73
2022/03/02 12:32:37;;;;;;;23.80;12.97;;;11.50;99.90;;;;;;5035767;28;20190;-72
2022/03/02 12:35:07;;;;;;;23.90;11.93;;;11.20;99.90;;;;;;5035908;28;20175;-72
2022/03/02 12:37:33;;;;;;;20.03;12.43;;;11.10;99.90;;;;;;5035953;28;20544;-72
2022/03/02 12:40:01;;;;;;;20.57;12.50;;;11.00;99.90;;;;;;5035903;28;20632;-72
2022/03/02 12:42:26;;;;;;;19.97;11.93;;;11.20;99.90;;;;;;5034528;28;20213;-72